Highspeed 5 — SYDM — position and weather

sailwx.info

Track history (hours):
 
Tides and Currents Weather Stations Pressure Air Temp Water Temp Dewpoint Dewpoint Depression Visibility Wind Speed Wind Dir Waves Ship Positions

Highspeed 5

Last reported at 2014-Jul-29 16:32 UTC. Time now 2014-Jul-30 03:04 UTC.
Position N 35°26' E 025°09'.

Length 85 m; draft 3 m.

Type: High speed craft. MMSI: 240348000.

Date/timePositionNaut miles runAvg speedWind from/ knotsBaromVisibWave heightAir tempDewpointWater temp
2014-Jul-29 16:32N 35°26' E 025°09'3838.7
2014-Jul-29 15:34N 36°04' E 025°16'2020.5
2014-Jul-29 14:34N 36°24' E 025°22'2827.6
2014-Jul-29 13:34N 36°49' E 025°08'2120.3
2014-Jul-29 12:31N 37°10' E 025°10'1515.2
2014-Jul-29 11:34N 37°24' E 025°17'2626.1
2014-Jul-29 10:33N 37°01' E 025°01'2525.2
2014-Jul-29 09:34N 36°39' E 025°16'1716.8
2014-Jul-29 08:34N 36°23' E 025°23'3636.4
2014-Jul-29 07:33N 35°47' E 025°16'15 1.0
2014-Jul-28 16:33N 35°33' E 025°11'4040.2
2014-Jul-28 15:33N 36°13' E 025°19'2121.1
2014-Jul-28 14:33N 36°34' E 025°18'3332.7
2014-Jul-28 13:33N 37°06' E 025°22'1110.9
2014-Jul-28 12:34N 37°13' E 025°12'7 6.6
2014-Jul-28 11:33N 37°19' E 025°15'1010.5
2014-Jul-28 10:34N 37°09' E 025°19'2424.3
2014-Jul-28 09:33N 36°45' E 025°15'2323.1
2014-Jul-28 08:33N 36°23' E 025°24'45 2.8
2014-Jul-27 16:33N 35°39' E 025°11'4039.9
2014-Jul-27 15:34N 36°18' E 025°20'1515.2
2014-Jul-27 14:34N 36°33' E 025°17'3433.3
2014-Jul-27 13:33N 37°06' E 025°22'1111.3
2014-Jul-27 12:34N 37°14' E 025°12'7 7.0
2014-Jul-27 11:33N 37°20' E 025°16'1111.3
2014-Jul-27 10:34N 37°09' E 025°19'2626.3
2014-Jul-27 09:34N 36°43' E 025°14'2121.4
2014-Jul-27 08:33N 36°23' E 025°24'3737.1
2014-Jul-27 07:33N 35°47' E 025°14'2 0.2
2014-Jul-26 16:19N 35°45' E 025°13'3039.9
2014-Jul-26 15:34N 36°14' E 025°19'2120.8
2014-Jul-26 14:34N 36°35' E 025°17'2827.5
2014-Jul-26 13:33N 36°59' E 024°59'2525.6
2014-Jul-26 12:33N 37°20' E 025°16'6 5.7
2014-Jul-26 11:33N 37°15' E 025°13'2120.7
2014-Jul-26 10:34N 36°57' E 024°58'2525.1
2014-Jul-26 09:33N 36°37' E 025°17'1514.7
2014-Jul-26 08:33N 36°23' E 025°23'3837.0
2014-Jul-26 07:31N 35°45' E 025°14'2 0.1
2014-Jul-25 16:26N 35°47' E 025°12'3540.1
2014-Jul-25 15:34N 36°21' E 025°21'2222.2
2014-Jul-25 14:34N 36°43' E 025°15'2625.6
2014-Jul-25 13:34N 37°08' E 025°20'1111.3
2014-Jul-25 12:34N 37°18' E 025°15'2 2.0
2014-Jul-25 11:34N 37°16' E 025°14'10 9.9
2014-Jul-25 10:34N 37°08' E 025°20'2525.2
2014-Jul-25 09:34N 36°43' E 025°14'2121.2
2014-Jul-25 08:34N 36°23' E 025°23'38 2.3
2014-Jul-24 16:13N 35°47' E 025°12'2639.4
2014-Jul-24 15:33N 36°12' E 025°19'1312.7
2014-Jul-24 14:33N 36°25' E 025°19'2727.3
2014-Jul-24 13:33N 36°50' E 025°07'2323.2
2014-Jul-24 12:33N 37°13' E 025°11'7 6.8
2014-Jul-24 11:33N 37°19' E 025°15'2524.9
2014-Jul-24 10:33N 36°58' E 024°58'2626.0
2014-Jul-24 09:33N 36°37' E 025°17'1717.4
2014-Jul-24 08:33N 36°19' E 025°19'59 3.9
2014-Jul-23 17:14N 35°21' E 025°09'3235.6
2014-Jul-23 16:20N 35°51' E 024°57'2936.7
2014-Jul-23 15:33N 36°16' E 025°16'1717.1
2014-Jul-23 14:33N 36°33' E 025°17'2726.7
2014-Jul-23 13:34N 36°56' E 025°00'2524.9
2014-Jul-23 12:34N 37°18' E 025°15'2 2.3
2014-Jul-23 11:34N 37°16' E 025°14'2423.6
2014-Jul-23 10:33N 36°54' E 025°02'3724.6
2014-Jul-23 09:04N 36°23' E 025°26'917.5
2014-Jul-23 08:34N 36°16' E 025°19'5613.4
2014-Jul-23 04:22N 35°21' E 025°09'9 0.8
2014-Jul-22 16:28N 35°29' E 025°11'3639.6
2014-Jul-22 15:33N 36°05' E 025°18'2019.4
2014-Jul-22 14:33N 36°25' E 025°20'2727.6
2014-Jul-22 13:33N 36°50' E 025°07'2020.0
2014-Jul-22 12:33N 37°10' E 025°10'1414.6
2014-Jul-22 11:34N 37°23' E 025°17'2625.6
2014-Jul-22 10:33N 37°01' E 025°01'2525.1
2014-Jul-22 09:33N 36°39' E 025°16'1717.3
2014-Jul-22 08:33N 36°23' E 025°24'3837.8
2014-Jul-22 07:33N 35°46' E 025°14'2 0.2
2014-Jul-21 16:32N 35°48' E 025°13'3637.3
2014-Jul-21 15:33N 36°23' E 025°26'2726.0
2014-Jul-21 14:32N 36°49' E 025°16'1918.2
2014-Jul-21 13:30N 37°07' E 025°08'2122.8
2014-Jul-21 12:33N 37°27' E 025°18'2222.1
2014-Jul-21 11:32N 37°06' E 025°08'1211.9
2014-Jul-21 10:33N 37°06' E 025°22'3333.0
2014-Jul-21 09:34N 36°34' E 025°17'1717.3
2014-Jul-21 08:33N 36°17' E 025°20'23 1.5
2014-Jul-20 16:33N 35°53' E 025°16'3129.0
2014-Jul-20 15:29N 36°23' E 025°26'3133.8
2014-Jul-20 14:34N 36°54' E 025°17'1413.5
2014-Jul-20 13:30N 37°06' E 025°08'2223.3
2014-Jul-20 12:33N 37°27' E 025°18'1817.7
2014-Jul-20 11:33N 37°10' E 025°10'1010.5
2014-Jul-20 10:34N 37°06' E 025°22'2827.4
2014-Jul-20 09:33N 36°39' E 025°16'1717.2
2014-Jul-20 08:33N 36°23' E 025°23'3636.1
2014-Jul-20 07:33N 35°48' E 025°14'  
Track history (hours):
 
Tides and Currents Weather Stations Pressure Air Temp Water Temp Dewpoint Dewpoint Depression Visibility Wind Speed Wind Dir Waves Ship Positions

Highspeed 5

Last reported at 2014-Jul-29 16:32 UTC. Time now 2014-Jul-30 03:04 UTC.
Position N 35°26' E 025°09'.

Length 85 m; draft 3 m.

Type: High speed craft. MMSI: 240348000.

Date/timePositionNaut miles runAvg speedWind from/ knotsBaromVisibWave heightAir tempDewpointWater temp
2014-Jul-29 16:32N 35°26' E 025°09'3838.7
2014-Jul-29 15:34N 36°04' E 025°16'2020.5
2014-Jul-29 14:34N 36°24' E 025°22'2827.6
2014-Jul-29 13:34N 36°49' E 025°08'2120.3
2014-Jul-29 12:31N 37°10' E 025°10'1515.2
2014-Jul-29 11:34N 37°24' E 025°17'2626.1
2014-Jul-29 10:33N 37°01' E 025°01'2525.2
2014-Jul-29 09:34N 36°39' E 025°16'1716.8
2014-Jul-29 08:34N 36°23' E 025°23'3636.4
2014-Jul-29 07:33N 35°47' E 025°16'15 1.0
2014-Jul-28 16:33N 35°33' E 025°11'4040.2
2014-Jul-28 15:33N 36°13' E 025°19'2121.1
2014-Jul-28 14:33N 36°34' E 025°18'3332.7
2014-Jul-28 13:33N 37°06' E 025°22'1110.9
2014-Jul-28 12:34N 37°13' E 025°12'7 6.6
2014-Jul-28 11:33N 37°19' E 025°15'1010.5
2014-Jul-28 10:34N 37°09' E 025°19'2424.3
2014-Jul-28 09:33N 36°45' E 025°15'2323.1
2014-Jul-28 08:33N 36°23' E 025°24'45 2.8
2014-Jul-27 16:33N 35°39' E 025°11'4039.9
2014-Jul-27 15:34N 36°18' E 025°20'1515.2
2014-Jul-27 14:34N 36°33' E 025°17'3433.3
2014-Jul-27 13:33N 37°06' E 025°22'1111.3
2014-Jul-27 12:34N 37°14' E 025°12'7 7.0
2014-Jul-27 11:33N 37°20' E 025°16'1111.3
2014-Jul-27 10:34N 37°09' E 025°19'2626.3
2014-Jul-27 09:34N 36°43' E 025°14'2121.4
2014-Jul-27 08:33N 36°23' E 025°24'3737.1
2014-Jul-27 07:33N 35°47' E 025°14'2 0.2
2014-Jul-26 16:19N 35°45' E 025°13'3039.9
2014-Jul-26 15:34N 36°14' E 025°19'2120.8
2014-Jul-26 14:34N 36°35' E 025°17'2827.5
2014-Jul-26 13:33N 36°59' E 024°59'2525.6
2014-Jul-26 12:33N 37°20' E 025°16'6 5.7
2014-Jul-26 11:33N 37°15' E 025°13'2120.7
2014-Jul-26 10:34N 36°57' E 024°58'2525.1
2014-Jul-26 09:33N 36°37' E 025°17'1514.7
2014-Jul-26 08:33N 36°23' E 025°23'3837.0
2014-Jul-26 07:31N 35°45' E 025°14'2 0.1
2014-Jul-25 16:26N 35°47' E 025°12'3540.1
2014-Jul-25 15:34N 36°21' E 025°21'2222.2
2014-Jul-25 14:34N 36°43' E 025°15'2625.6
2014-Jul-25 13:34N 37°08' E 025°20'1111.3
2014-Jul-25 12:34N 37°18' E 025°15'2 2.0
2014-Jul-25 11:34N 37°16' E 025°14'10 9.9
2014-Jul-25 10:34N 37°08' E 025°20'2525.2
2014-Jul-25 09:34N 36°43' E 025°14'2121.2
2014-Jul-25 08:34N 36°23' E 025°23'38 2.3
2014-Jul-24 16:13N 35°47' E 025°12'2639.4
2014-Jul-24 15:33N 36°12' E 025°19'1312.7
2014-Jul-24 14:33N 36°25' E 025°19'2727.3
2014-Jul-24 13:33N 36°50' E 025°07'2323.2
2014-Jul-24 12:33N 37°13' E 025°11'7 6.8
2014-Jul-24 11:33N 37°19' E 025°15'2524.9
2014-Jul-24 10:33N 36°58' E 024°58'2626.0
2014-Jul-24 09:33N 36°37' E 025°17'1717.4
2014-Jul-24 08:33N 36°19' E 025°19'59 3.9
2014-Jul-23 17:14N 35°21' E 025°09'3235.6
2014-Jul-23 16:20N 35°51' E 024°57'2936.7
2014-Jul-23 15:33N 36°16' E 025°16'1717.1
2014-Jul-23 14:33N 36°33' E 025°17'2726.7
2014-Jul-23 13:34N 36°56' E 025°00'2524.9
2014-Jul-23 12:34N 37°18' E 025°15'2 2.3
2014-Jul-23 11:34N 37°16' E 025°14'2423.6
2014-Jul-23 10:33N 36°54' E 025°02'3724.6
2014-Jul-23 09:04N 36°23' E 025°26'917.5
2014-Jul-23 08:34N 36°16' E 025°19'5613.4
2014-Jul-23 04:22N 35°21' E 025°09'9 0.8
2014-Jul-22 16:28N 35°29' E 025°11'3639.6
2014-Jul-22 15:33N 36°05' E 025°18'2019.4
2014-Jul-22 14:33N 36°25' E 025°20'2727.6
2014-Jul-22 13:33N 36°50' E 025°07'2020.0
2014-Jul-22 12:33N 37°10' E 025°10'1414.6
2014-Jul-22 11:34N 37°23' E 025°17'2625.6
2014-Jul-22 10:33N 37°01' E 025°01'2525.1
2014-Jul-22 09:33N 36°39' E 025°16'1717.3
2014-Jul-22 08:33N 36°23' E 025°24'3837.8
2014-Jul-22 07:33N 35°46' E 025°14'2 0.2
2014-Jul-21 16:32N 35°48' E 025°13'3637.3
2014-Jul-21 15:33N 36°23' E 025°26'2726.0
2014-Jul-21 14:32N 36°49' E 025°16'1918.2
2014-Jul-21 13:30N 37°07' E 025°08'2122.8
2014-Jul-21 12:33N 37°27' E 025°18'2222.1
2014-Jul-21 11:32N 37°06' E 025°08'1211.9
2014-Jul-21 10:33N 37°06' E 025°22'3333.0
2014-Jul-21 09:34N 36°34' E 025°17'1717.3
2014-Jul-21 08:33N 36°17' E 025°20'23 1.5
2014-Jul-20 16:33N 35°53' E 025°16'3129.0
2014-Jul-20 15:29N 36°23' E 025°26'3133.8
2014-Jul-20 14:34N 36°54' E 025°17'1413.5
2014-Jul-20 13:30N 37°06' E 025°08'2223.3
2014-Jul-20 12:33N 37°27' E 025°18'1817.7
2014-Jul-20 11:33N 37°10' E 025°10'1010.5
2014-Jul-20 10:34N 37°06' E 025°22'2827.4
2014-Jul-20 09:33N 36°39' E 025°16'1717.2
2014-Jul-20 08:33N 36°23' E 025°23'3636.1
2014-Jul-20 07:33N 35°48' E 025°14'  

Dump ship's entire track history